createdAt,value
2023-01-31T00:01:40.191Z,90.30
2023-01-31T00:04:11.375Z,101.20
2023-01-31T00:06:43.725Z,97.10
2023-01-31T00:09:12.292Z,101.72
2023-01-31T00:11:39.326Z,87.13
2023-01-31T00:14:07.247Z,90.97
2023-01-31T00:16:35.088Z,88.30
2023-01-31T00:19:03.502Z,92.43
2023-01-31T00:21:32.318Z,97.38
2023-01-31T00:24:00.283Z,95.43
2023-01-31T00:26:33.008Z,95.13
2023-01-31T00:29:02.103Z,92.80
2023-01-31T00:31:32.395Z,96.90
2023-01-31T00:33:59.799Z,91.32
2023-01-31T00:36:30.781Z,96.82
2023-01-31T00:38:59.914Z,93.38
2023-01-31T00:41:28.360Z,98.20
2023-01-31T00:43:56.025Z,94.03
2023-01-31T00:46:23.938Z,96.22
2023-01-31T00:48:51.346Z,95.32
2023-01-31T00:51:19.245Z,91.63
2023-01-31T00:53:47.057Z,89.68
2023-01-31T00:56:17.730Z,88.63
2023-01-31T00:58:45.233Z,94.65
2023-01-31T01:01:26.896Z,91.85
2023-01-31T01:03:55.789Z,93.57
2023-01-31T01:06:23.619Z,91.55
2023-01-31T01:08:51.963Z,82.53
2023-01-31T01:11:25.830Z,85.85
2023-01-31T01:13:53.128Z,87.70
2023-01-31T01:16:24.635Z,82.47
2023-01-31T01:18:54.868Z,88.07
2023-01-31T01:21:25.420Z,85.68
2023-01-31T01:23:52.763Z,92.05
2023-01-31T01:26:22.386Z,85.05
2023-01-31T01:28:50.331Z,83.43
2023-01-31T01:31:18.871Z,86.90
2023-01-31T01:33:47.779Z,88.28
2023-01-31T01:36:17.288Z,90.00
2023-01-31T01:38:45.741Z,87.25
2023-01-31T01:41:13.643Z,90.97
2023-01-31T01:43:55.588Z,77.90
2023-01-31T01:46:36.739Z,81.82
2023-01-31T01:49:39.483Z,88.43
2023-01-31T01:52:11.195Z,88.95
2023-01-31T01:54:57.753Z,85.15
2023-01-31T01:57:36.675Z,86.53
2023-01-31T02:00:25.649Z,87.13
2023-01-31T02:02:56.697Z,81.65
2023-01-31T02:05:32.413Z,74.82
2023-01-31T02:08:01.156Z,75.65
2023-01-31T02:10:38.155Z,79.75
2023-01-31T02:13:07.161Z,73.10
2023-01-31T02:15:35.878Z,69.80
2023-01-31T02:18:03.289Z,73.22
2023-01-31T02:20:49.153Z,66.68
2023-01-31T02:23:47.261Z,66.25
2023-01-31T02:26:39.423Z,66.57
2023-01-31T02:29:24.127Z,68.05
2023-01-31T02:32:28.787Z,75.87
2023-01-31T02:35:04.126Z,66.53
2023-01-31T02:37:57.237Z,60.60
2023-01-31T02:40:59.603Z,61.05
2023-01-31T02:43:30.749Z,61.50
2023-01-31T02:46:16.703Z,71.68
2023-01-31T02:48:57.273Z,61.53
2023-01-31T02:51:32.221Z,59.60
2023-01-31T02:54:15.812Z,53.75
2023-01-31T02:56:46.138Z,54.45
2023-01-31T02:59:26.863Z,52.25
2023-01-31T03:02:00.869Z,54.40
2023-01-31T03:04:33.756Z,52.20
2023-01-31T03:07:26.931Z,46.10
2023-01-31T03:10:33.173Z,45.75
2023-01-31T03:13:33.631Z,46.97
2023-01-31T03:16:40.301Z,41.55
2023-01-31T03:19:21.130Z,43.35
2023-01-31T03:22:01.445Z,44.75
2023-01-31T03:24:30.610Z,43.38
2023-01-31T03:27:00.400Z,42.95
2023-01-31T03:29:30.010Z,44.30
2023-01-31T03:32:04.931Z,40.20
2023-01-31T03:34:33.270Z,46.65
2023-01-31T03:37:31.734Z,40.72
2023-01-31T03:40:25.290Z,36.38
2023-01-31T03:45:46.865Z,33.92
2023-01-31T03:48:17.912Z,28.88
2023-01-31T03:50:58.715Z,35.42
2023-01-31T03:53:41.451Z,29.58
2023-01-31T03:56:17.336Z,29.33
2023-01-31T03:58:50.920Z,29.65
2023-01-31T04:01:20.474Z,28.15
2023-01-31T04:04:01.962Z,28.55
2023-01-31T04:06:30.131Z,25.25
2023-01-31T04:08:58.591Z,25.30
2023-01-31T04:11:27.629Z,28.83
2023-01-31T04:13:54.780Z,25.05
2023-01-31T04:16:21.870Z,23.75
2023-01-31T04:18:48.877Z,21.73
2023-01-31T04:21:15.893Z,22.05
2023-01-31T04:23:42.925Z,24.38
2023-01-31T04:26:10.017Z,24.45
2023-01-31T04:28:37.060Z,21.50
2023-01-31T04:31:04.272Z,20.83
2023-01-31T04:33:31.986Z,19.92
2023-01-31T04:35:59.054Z,20.55
2023-01-31T04:38:26.026Z,25.83
2023-01-31T04:40:53.006Z,15.90
2023-01-31T04:43:19.981Z,20.88
2023-01-31T04:45:47.758Z,21.95
2023-01-31T04:48:14.716Z,16.40
2023-01-31T04:50:41.686Z,19.50
2023-01-31T04:53:09.458Z,17.35
2023-01-31T04:55:36.632Z,16.00
2023-01-31T04:58:05.788Z,14.88
2023-01-31T05:00:33.799Z,16.80
2023-01-31T05:03:01.327Z,14.73
2023-01-31T05:05:28.475Z,16.42
2023-01-31T05:07:55.419Z,15.27
2023-01-31T05:10:22.379Z,16.35
2023-01-31T05:12:49.346Z,17.25
2023-01-31T05:15:16.588Z,15.52
2023-01-31T05:17:43.664Z,14.48
2023-01-31T05:20:11.345Z,21.70
2023-01-31T05:22:38.284Z,17.90
2023-01-31T05:25:05.983Z,14.20
2023-01-31T05:27:33.619Z,14.10
2023-01-31T05:30:01.417Z,15.63
2023-01-31T05:32:28.916Z,18.92
2023-01-31T05:34:56.200Z,14.80
2023-01-31T05:37:23.403Z,17.58
2023-01-31T05:39:51.085Z,13.48
2023-01-31T05:42:18.033Z,13.65
2023-01-31T05:44:45.052Z,14.35
2023-01-31T05:47:12.926Z,13.00
2023-01-31T05:49:40.202Z,11.68
2023-01-31T05:52:07.240Z,13.10
2023-01-31T05:54:34.658Z,18.48
2023-01-31T05:57:02.698Z,13.82
2023-01-31T05:59:31.303Z,14.30
2023-01-31T06:01:58.285Z,11.70
2023-01-31T06:04:25.302Z,12.73
2023-01-31T06:06:52.291Z,8.93
2023-01-31T06:09:19.317Z,14.20
2023-01-31T06:11:46.219Z,11.38
2023-01-31T06:14:13.174Z,7.85
2023-01-31T06:16:40.132Z,9.90
2023-01-31T06:19:07.745Z,8.52
2023-01-31T06:21:35.250Z,10.57
2023-01-31T06:24:02.224Z,11.57
2023-01-31T06:26:29.278Z,10.48
2023-01-31T06:28:56.694Z,10.10
2023-01-31T06:31:23.730Z,7.72
2023-01-31T06:33:50.935Z,8.30
2023-01-31T06:36:19.596Z,13.30
2023-01-31T06:38:51.029Z,11.65
2023-01-31T06:41:21.276Z,8.00
2023-01-31T06:43:48.323Z,13.43
2023-01-31T06:46:15.644Z,10.30
2023-01-31T06:48:42.722Z,12.55
2023-01-31T06:51:10.213Z,10.23
2023-01-31T06:53:37.096Z,9.55
2023-01-31T06:56:04.242Z,10.88
2023-01-31T06:58:31.420Z,9.40
2023-01-31T07:01:03.629Z,11.70
2023-01-31T07:03:30.544Z,13.02
2023-01-31T07:05:57.745Z,12.68
2023-01-31T07:08:24.723Z,19.75
2023-01-31T07:10:51.609Z,10.55
2023-01-31T07:13:19.972Z,8.77
2023-01-31T07:15:46.906Z,10.50
2023-01-31T07:18:13.905Z,10.80
2023-01-31T07:20:42.184Z,10.38
2023-01-31T07:23:09.671Z,26.02
2023-01-31T07:25:36.730Z,9.57
2023-01-31T07:28:04.289Z,10.25
2023-01-31T07:30:32.123Z,13.68
2023-01-31T07:33:00.568Z,10.73
2023-01-31T07:35:28.328Z,17.63
2023-01-31T07:37:55.415Z,17.50
2023-01-31T07:40:22.416Z,14.30
2023-01-31T07:42:49.413Z,15.50
2023-01-31T07:45:23.438Z,16.23
2023-01-31T07:47:51.742Z,16.05
2023-01-31T07:50:19.457Z,12.65
2023-01-31T07:52:48.232Z,13.68
2023-01-31T07:55:15.182Z,15.48
2023-01-31T07:57:42.136Z,12.13
2023-01-31T08:00:29.769Z,13.07
2023-01-31T08:03:15.174Z,10.52
2023-01-31T08:05:42.093Z,11.18
2023-01-31T08:08:11.700Z,14.88
2023-01-31T08:10:39.354Z,13.57
2023-01-31T08:13:06.595Z,10.95
2023-01-31T08:15:34.244Z,44.67
2023-01-31T08:18:02.128Z,46.83
2023-01-31T08:20:30.781Z,37.47
2023-01-31T08:23:00.487Z,49.17
2023-01-31T08:25:31.999Z,40.30
2023-01-31T08:28:00.403Z,24.05
2023-01-31T08:30:28.828Z,39.78
2023-01-31T08:32:56.835Z,28.83
2023-01-31T08:35:26.344Z,28.33
2023-01-31T08:38:00.934Z,17.75
2023-01-31T08:40:34.305Z,34.20
2023-01-31T08:43:01.665Z,33.22
2023-01-31T08:45:30.357Z,32.00
2023-01-31T08:47:59.572Z,17.45
2023-01-31T08:50:29.091Z,33.22
2023-01-31T08:52:57.566Z,38.63
2023-01-31T08:55:25.355Z,31.10
2023-01-31T08:57:59.809Z,28.48
2023-01-31T09:00:27.879Z,28.55
2023-01-31T09:02:56.474Z,29.90
2023-01-31T09:05:25.242Z,74.32
2023-01-31T09:07:53.133Z,19.92
2023-01-31T09:10:21.474Z,33.70
2023-01-31T09:12:48.885Z,53.92
2023-01-31T09:15:16.123Z,20.02
2023-01-31T09:17:44.363Z,12.90
2023-01-31T09:20:11.843Z,11.73
2023-01-31T09:22:38.964Z,17.85
2023-01-31T09:25:07.001Z,13.63
2023-01-31T09:27:35.295Z,8.20
2023-01-31T09:30:02.458Z,9.82
2023-01-31T11:25:22.956Z,54.55
2023-01-31T11:27:54.432Z,51.80
2023-01-31T11:30:32.578Z,58.20
2023-01-31T11:32:59.633Z,59.03
2023-01-31T11:35:32.496Z,57.38
2023-01-31T11:38:20.353Z,52.78
2023-01-31T11:40:47.352Z,51.08
2023-01-31T11:45:45.390Z,44.85
2023-01-31T11:48:18.622Z,49.00
2023-01-31T11:50:57.119Z,47.08
2023-01-31T11:53:32.781Z,47.15
2023-01-31T15:32:49.957Z,35.90
2023-01-31T15:35:25.695Z,36.42
2023-01-31T15:38:32.450Z,43.25
2023-01-31T15:41:26.737Z,51.28
2023-01-31T15:43:56.953Z,51.83
2023-01-31T15:46:35.884Z,50.47
2023-01-31T15:49:22.992Z,49.20
2023-01-31T15:52:08.135Z,50.13
2023-01-31T15:54:35.601Z,53.22
2023-01-31T15:57:04.229Z,53.45
2023-01-31T15:59:33.702Z,48.22
2023-01-31T16:02:02.771Z,49.70
2023-01-31T16:04:30.473Z,42.65
2023-01-31T16:06:58.773Z,50.05
2023-01-31T16:09:33.457Z,48.22
2023-01-31T16:12:02.188Z,45.63
2023-01-31T16:14:30.127Z,43.42
2023-01-31T16:16:58.528Z,48.20
2023-01-31T16:19:32.199Z,44.65
2023-01-31T16:21:59.707Z,41.40
2023-01-31T16:24:26.885Z,42.63
2023-01-31T16:27:13.832Z,37.38
2023-01-31T16:29:51.856Z,49.22
2023-01-31T16:32:31.815Z,50.55
2023-01-31T16:35:05.797Z,44.28
2023-01-31T16:37:37.520Z,47.70
2023-01-31T16:40:27.667Z,48.35
2023-01-31T16:43:19.184Z,56.78
2023-01-31T16:45:58.171Z,52.38
2023-01-31T16:48:29.379Z,53.08
2023-01-31T16:50:58.622Z,51.13
2023-01-31T16:53:35.248Z,51.78
2023-01-31T16:56:14.514Z,53.78
2023-01-31T16:58:50.293Z,55.10
2023-01-31T17:01:24.991Z,62.60
2023-01-31T17:04:09.553Z,52.35
2023-01-31T17:06:37.182Z,53.90
2023-01-31T17:09:06.310Z,54.90
2023-01-31T17:11:42.708Z,60.53
2023-01-31T17:22:03.461Z,57.15
2023-01-31T17:24:30.481Z,64.45
2023-01-31T17:26:57.784Z,58.75
2023-01-31T17:29:26.053Z,90.67
2023-01-31T17:31:53.105Z,105.10
2023-01-31T17:34:21.257Z,79.90
2023-01-31T17:36:48.229Z,74.82
2023-01-31T17:39:15.257Z,81.30
2023-01-31T19:29:39.791Z,41.37
2023-01-31T19:32:06.971Z,50.22
2023-01-31T19:34:36.380Z,41.40
2023-01-31T19:37:03.797Z,31.33
2023-01-31T19:39:30.800Z,36.75
2023-01-31T19:41:58.673Z,38.80
2023-01-31T19:44:25.888Z,34.78
2023-01-31T19:46:53.893Z,29.63
2023-01-31T19:49:24.120Z,32.13
2023-01-31T19:51:51.033Z,35.22
2023-01-31T19:54:19.264Z,30.00
2023-01-31T19:56:46.585Z,31.23
2023-01-31T19:59:13.741Z,28.38
2023-01-31T20:01:40.666Z,24.27
2023-01-31T20:04:07.714Z,29.55
2023-01-31T20:06:35.064Z,33.97
2023-01-31T20:09:04.944Z,26.65
2023-01-31T20:11:32.389Z,23.02
2023-01-31T20:14:00.252Z,24.85
2023-01-31T20:16:27.341Z,18.67
2023-01-31T20:18:56.233Z,22.67
2023-01-31T20:21:23.799Z,23.75
2023-01-31T20:23:50.849Z,28.48
2023-01-31T20:26:19.381Z,94.10
2023-01-31T20:28:46.426Z,47.75
2023-01-31T20:31:15.729Z,28.02
2023-01-31T20:33:42.984Z,31.67
2023-01-31T20:36:10.613Z,29.55
2023-01-31T20:38:38.674Z,30.77
2023-01-31T20:41:07.375Z,31.50
2023-01-31T20:43:35.098Z,33.53
2023-01-31T20:46:07.208Z,33.63
2023-01-31T20:48:34.206Z,39.58
2023-01-31T20:51:01.379Z,34.88
2023-01-31T20:53:31.905Z,30.42
2023-01-31T20:56:09.920Z,32.03
2023-01-31T20:58:38.944Z,31.88
2023-01-31T21:01:07.110Z,37.00
2023-01-31T21:03:35.586Z,33.92
2023-01-31T21:06:03.693Z,44.42
2023-01-31T21:08:32.033Z,46.60
2023-01-31T21:10:59.660Z,45.78
2023-01-31T21:13:29.049Z,43.95
2023-01-31T21:15:58.530Z,44.40
2023-01-31T21:18:27.627Z,38.13
2023-01-31T21:20:54.851Z,31.85
2023-01-31T21:23:22.829Z,28.15
2023-01-31T21:25:49.813Z,31.08
2023-01-31T21:28:17.407Z,33.80
2023-01-31T21:30:59.788Z,36.03
2023-01-31T21:33:28.279Z,34.30
2023-01-31T21:35:58.104Z,47.50
2023-01-31T21:38:26.827Z,42.22
2023-01-31T21:41:12.423Z,40.70
2023-01-31T21:43:42.459Z,34.83
2023-01-31T21:46:10.867Z,33.80
2023-01-31T21:48:38.576Z,30.00
2023-01-31T21:51:07.933Z,28.10
2023-01-31T21:53:35.665Z,34.70
2023-01-31T21:56:08.268Z,32.45
2023-01-31T21:58:37.308Z,30.02
2023-01-31T22:01:13.127Z,31.95
2023-01-31T22:03:44.250Z,28.33
2023-01-31T22:06:13.205Z,24.15
2023-01-31T22:08:40.212Z,32.47
2023-01-31T22:11:16.424Z,29.23
2023-01-31T22:13:49.192Z,36.95
2023-01-31T22:16:20.759Z,40.58
2023-01-31T22:18:48.291Z,33.78
2023-01-31T22:21:26.844Z,26.02
2023-01-31T22:23:56.511Z,24.02
2023-01-31T22:26:26.345Z,24.02
2023-01-31T22:28:56.656Z,29.80
2023-01-31T22:31:24.212Z,36.53
2023-01-31T22:33:51.638Z,29.30
2023-01-31T22:36:18.991Z,38.38
2023-01-31T22:38:46.366Z,33.35
2023-01-31T22:41:15.263Z,39.40
2023-01-31T22:43:44.210Z,36.47
2023-01-31T22:46:14.049Z,34.25
2023-01-31T22:48:41.632Z,31.42
2023-01-31T22:51:12.655Z,37.35
2023-01-31T22:53:40.456Z,31.08
2023-01-31T22:56:12.340Z,22.90
2023-01-31T22:58:39.403Z,26.73
2023-01-31T23:01:21.808Z,28.17
2023-01-31T23:03:49.533Z,20.85
2023-01-31T23:06:17.955Z,22.17
2023-01-31T23:08:45.390Z,20.10
2023-01-31T23:11:14.571Z,29.13
2023-01-31T23:13:42.563Z,21.25
2023-01-31T23:16:14.707Z,22.77
2023-01-31T23:18:41.780Z,23.92
2023-01-31T23:21:13.967Z,28.10
2023-01-31T23:23:42.812Z,23.50
2023-01-31T23:26:10.519Z,23.42
2023-01-31T23:28:37.924Z,24.88
2023-01-31T23:31:05.181Z,30.83
2023-01-31T23:33:32.257Z,22.63
2023-01-31T23:35:59.188Z,21.42
2023-01-31T23:38:26.204Z,26.88
2023-01-31T23:40:54.339Z,28.33
2023-01-31T23:43:22.133Z,24.35
2023-01-31T23:45:49.779Z,27.35
2023-01-31T23:48:17.160Z,25.77
2023-01-31T23:50:44.959Z,22.52
2023-01-31T23:53:11.934Z,23.80
2023-01-31T23:55:39.003Z,25.10
2023-01-31T23:58:06.127Z,27.20
